Weather at Air Trade Center Heliport

Public forecast

Using degrees Fahrenheit for public forecast. Weather courtesy of forecast.io.

Closest aviation weather report (METAR) to Air Trade Center Heliport

Closest report is Tri-Cities Regional TN/VA Airport, 6.1 nm (11.2 km) WNW. Retrieved 2021/06/23 01:53 UTC (8 minutes ago):

KTRI 230153Z 33008KT 10SM SCT055 BKN130 20/13 A3005 RMK AO2 SLP154 T02000128

Closest aviation forecast (TAF) to Air Trade Center Heliport

Closest forecast is Tri-Cities Regional TN/VA Airport, 6.1 nm (11.2 km) WNW. Retrieved 2021-06-23 00:33 UTC (1 hour ago):

TAF KTRI 222330Z 2300/2324 VRB03KT P6SM FEW060 SCT080 BKN110